Time;durP1;ratioP1;P1;durP2;ratioP2;P2;SDS_P1;SDS_P2;PMS_P1;PMS_P2;Temp;Humidity;BMP_temperature;BMP_pressure;BME280_temperature;BME280_humidity;BME280_pressure;Samples;Min_cycle;Max_cycle;Signal;HPM_P1;HPM_P2
2024/04/19 00:02:15;;;;;;;0.60;0.60;;;;;;;15.21;50.71;100738.46;110610;1256;23175;-54
2024/04/19 00:04:42;;;;;;;1.10;0.70;;;;;;;15.22;50.77;100737.22;110410;1266;22423;-54
2024/04/19 00:07:08;;;;;;;1.40;0.60;;;;;;;15.22;50.87;100741.91;110608;1263;23042;-55
2024/04/19 00:09:44;;;;;;;0.70;0.60;;;;;;;15.24;50.86;100742.39;110645;1254;22312;-54
2024/04/19 00:12:11;;;;;;;0.60;0.60;;;;;;;15.24;51.04;100746.92;110683;1264;22435;-54
2024/04/19 00:14:38;;;;;;;0.60;0.60;;;;;;;15.26;51.00;100750.52;109804;1263;1002224;-55
2024/04/19 00:17:05;;;;;;;0.70;0.50;;;;;;;15.28;51.00;100758.13;110423;1260;23075;-54
2024/04/19 00:19:32;;;;;;;0.60;0.50;;;;;;;15.29;50.91;100758.09;110641;1263;22106;-54
2024/04/19 00:21:59;;;;;;;1.20;0.80;;;;;;;15.30;51.06;100762.23;110604;1263;22131;-54
2024/04/19 00:24:26;;;;;;;1.00;0.80;;;;;;;15.31;50.94;100764.81;110438;1260;22364;-54
2024/04/19 00:26:53;;;;;;;1.10;1.00;;;;;;;15.33;50.89;100768.41;110654;1263;22352;-55
2024/04/19 00:29:39;;;;;;;0.80;0.80;;;;;;;15.34;50.93;100767.84;110624;1267;22989;-56
2024/04/19 00:32:06;;;;;;;0.80;0.70;;;;;;;15.35;50.85;100765.70;110657;1256;22261;-56
2024/04/19 00:34:33;;;;;;;0.60;0.60;;;;;;;15.35;50.76;100769.52;110670;1257;22943;-56
2024/04/19 00:37:00;;;;;;;0.80;0.80;;;;;;;15.37;50.84;100773.48;110586;1254;22503;-56
2024/04/19 00:39:27;;;;;;;0.90;0.70;;;;;;;15.38;50.86;100771.50;110626;1261;22823;-56
2024/04/19 00:41:54;;;;;;;0.70;0.60;;;;;;;15.39;50.84;100774.98;110397;1257;22323;-55
2024/04/19 00:44:20;;;;;;;0.90;0.70;;;;;;;15.39;50.85;100778.64;110625;1263;23045;-54
2024/04/19 00:46:47;;;;;;;1.50;0.60;;;;;;;15.40;50.86;100782.80;110625;1264;23154;-54
2024/04/19 00:49:30;;;;;;;0.50;0.50;;;;;;;15.41;50.77;100791.48;110618;1254;22600;-54
2024/04/19 00:51:56;;;;;;;0.50;0.50;;;;;;;15.41;50.81;100795.17;110659;1256;22416;-55
2024/04/19 00:54:23;;;;;;;0.70;0.60;;;;;;;15.41;50.92;100799.38;110666;1256;23233;-54
2024/04/19 00:56:50;;;;;;;0.50;0.50;;;;;;;15.41;50.76;100802.52;110651;1257;22520;-54
2024/04/19 00:59:17;;;;;;;0.40;0.40;;;;;;;15.40;50.74;100803.60;110657;1257;22443;-55
2024/04/19 01:01:44;;;;;;;0.60;0.60;;;;;;;15.38;50.81;100807.85;110612;1256;22591;-54
2024/04/19 01:04:10;;;;;;;0.50;0.50;;;;;;;15.37;50.88;100808.80;110594;1257;22092;-54
2024/04/19 01:06:37;;;;;;;0.60;0.60;;;;;;;15.36;50.89;100806.75;110675;1257;22216;-54
2024/04/19 01:09:04;;;;;;;0.60;0.60;;;;;;;15.34;50.74;100807.16;110679;1258;22248;-54
2024/04/19 01:11:31;;;;;;;0.50;0.40;;;;;;;15.32;50.77;100808.63;110706;1267;22313;-54
2024/04/19 01:13:58;;;;;;;0.60;0.60;;;;;;;15.31;50.78;100813.94;110665;1264;22385;-55
2024/04/19 01:16:25;;;;;;;0.70;0.70;;;;;;;15.28;50.72;100814.38;110448;1257;22469;-54
2024/04/19 01:18:52;;;;;;;1.00;0.50;;;;;;;15.26;50.66;100819.20;110629;1256;23213;-54
2024/04/19 01:21:19;;;;;;;0.70;0.70;;;;;;;15.23;50.77;100822.63;110639;1263;22406;-54
2024/04/19 01:23:46;;;;;;;1.20;0.50;;;;;;;15.21;50.71;100819.40;110580;1254;22431;-54
2024/04/19 01:26:12;;;;;;;0.80;0.50;;;;;;;15.18;50.73;100825.97;110654;1257;22336;-55
2024/04/19 01:28:39;;;;;;;1.00;0.50;;;;;;;15.15;50.75;100830.13;110647;1254;22396;-54
2024/04/19 01:31:06;;;;;;;0.70;0.60;;;;;;;15.12;50.71;100833.37;110656;1251;22358;-54
2024/04/19 01:33:33;;;;;;;1.10;0.50;;;;;;;15.09;50.63;100838.75;110418;1267;22284;-54
2024/04/19 01:36:00;;;;;;;0.30;0.30;;;;;;;15.05;50.76;100841.52;110421;1263;22124;-54
2024/04/19 01:38:45;;;;;;;0.60;0.60;;;;;;;15.01;50.86;100842.38;110499;1257;22108;-54
2024/04/19 01:41:12;;;;;;;0.50;0.50;;;;;;;14.98;50.83;100845.97;110595;1256;22129;-55
2024/04/19 01:43:39;;;;;;;1.20;0.60;;;;;;;14.96;50.80;100848.52;110449;1258;22092;-55
2024/04/19 01:46:05;;;;;;;1.00;0.90;;;;;;;14.93;50.77;100850.92;110594;1261;22335;-54
2024/04/19 01:48:32;;;;;;;1.30;1.20;;;;;;;14.88;50.73;100855.80;110589;1263;22270;-55
2024/04/19 01:50:59;;;;;;;1.80;1.20;;;;;;;14.85;50.76;100859.42;110597;1251;22096;-54
2024/04/19 01:53:26;;;;;;;0.70;0.70;;;;;;;14.83;50.71;100861.41;110463;1254;22919;-54
2024/04/19 01:55:53;;;;;;;0.80;0.70;;;;;;;14.82;50.59;100868.11;109867;1260;1002164;-55
2024/04/19 01:58:42;;;;;;;1.30;1.20;;;;;;;14.80;50.54;100874.98;109841;1264;1002244;-56
2024/04/19 02:01:09;;;;;;;0.70;0.70;;;;;;;14.78;50.60;100876.26;110622;1263;22195;-56
2024/04/19 02:03:39;;;;;;;0.50;0.50;;;;;;;14.77;50.32;100881.55;110616;1263;23155;-56
2024/04/19 02:06:15;;;;;;;0.60;0.50;;;;;;;14.74;50.36;100881.65;110456;1265;22119;-54
2024/04/19 02:08:42;;;;;;;1.00;0.60;;;;;;;14.72;50.31;100887.33;110589;1257;22123;-56
2024/04/19 02:11:09;;;;;;;1.30;0.40;;;;;;;14.70;50.35;100887.39;110436;1261;22919;-56
2024/04/19 02:13:36;;;;;;;0.70;0.50;;;;;;;14.68;50.44;100894.97;110430;1257;22252;-54
2024/04/19 02:16:03;;;;;;;0.70;0.70;;;;;;;14.65;50.49;100898.38;110586;1260;22541;-54
2024/04/19 02:18:30;;;;;;;0.60;0.60;;;;;;;14.62;50.37;100900.41;110388;1257;22520;-55
2024/04/19 02:20:57;;;;;;;1.00;0.70;;;;;;;14.61;50.30;100904.48;110620;1264;22404;-55
2024/04/19 02:23:53;;;;;;;0.60;0.60;;;;;;;14.58;50.34;100909.10;110615;1260;22414;-55
2024/04/19 02:26:20;;;;;;;0.50;0.50;;;;;;;14.54;50.17;100918.86;109249;1263;1002501;-54
2024/04/19 02:31:32;;;;;;;0.60;0.60;;;;;;;14.63;49.75;100919.95;110044;1260;23009;-55
2024/04/19 02:33:59;;;;;;;0.50;0.50;;;;;;;14.60;49.64;100922.30;110119;1258;22284;-54
2024/04/19 02:36:26;;;;;;;0.60;0.50;;;;;;;14.57;49.82;100922.58;109896;1265;22147;-54
2024/04/19 02:38:53;;;;;;;0.60;0.50;;;;;;;14.55;49.82;100920.23;109971;1264;22662;-54
2024/04/19 02:41:20;;;;;;;0.50;0.50;;;;;;;14.54;49.80;100923.95;110099;1264;22124;-54
2024/04/19 02:43:47;;;;;;;0.50;0.50;;;;;;;14.53;49.69;100928.49;109821;1264;23212;-55
2024/04/19 02:46:15;;;;;;;0.70;0.70;;;;;;;14.51;49.77;100929.80;110041;1257;22160;-54
2024/04/19 02:48:42;;;;;;;0.50;0.50;;;;;;;14.48;49.86;100939.16;110073;1258;22152;-54
2024/04/19 02:51:09;;;;;;;0.70;0.70;;;;;;;14.46;49.87;100939.73;109375;1263;1002416;-54
2024/04/19 02:53:36;;;;;;;1.10;0.60;;;;;;;14.46;49.75;100943.06;110063;1264;22114;-55
2024/04/19 02:56:05;;;;;;;1.10;0.70;;;;;;;14.46;49.71;100945.70;110081;1260;22150;-54
2024/04/19 02:58:32;;;;;;;0.50;0.50;;;;;;;14.45;49.60;100948.89;109776;1276;22672;-55
2024/04/19 03:00:59;;;;;;;0.60;0.50;;;;;;;14.42;49.54;100950.88;110071;1257;22166;-54
2024/04/19 03:03:26;;;;;;;0.60;0.60;;;;;;;14.40;49.62;100951.49;110499;1260;22504;-54
2024/04/19 03:05:54;;;;;;;0.50;0.50;;;;;;;14.38;49.53;100956.77;110425;1257;22342;-54
2024/04/19 03:08:21;;;;;;;1.00;0.50;;;;;;;14.36;49.44;100958.25;110467;1260;22451;-54
2024/04/19 03:10:48;;;;;;;0.70;0.70;;;;;;;14.34;49.55;100958.13;110596;1263;22463;-54
2024/04/19 03:13:15;;;;;;;0.80;0.70;;;;;;;14.34;49.57;100961.82;110618;1254;22471;-54
2024/04/19 03:15:42;;;;;;;0.70;0.60;;;;;;;14.32;49.57;100962.38;110611;1260;22314;-54
2024/04/19 03:18:29;;;;;;;0.60;0.60;;;;;;;14.31;49.56;100961.92;110689;1250;22432;-54
2024/04/19 03:21:02;;;;;;;2.00;0.60;;;;;;;14.29;49.63;100964.23;110601;1274;23064;-54
2024/04/19 03:23:29;;;;;;;0.70;0.70;;;;;;;14.28;49.64;100963.91;110443;1261;23195;-54
2024/04/19 03:25:59;;;;;;;0.90;0.80;;;;;;;14.27;49.54;100970.23;110624;1251;23034;-55
2024/04/19 03:28:27;;;;;;;0.60;0.60;;;;;;;14.26;49.62;100974.61;110669;1255;22168;-54
2024/04/19 03:30:53;;;;;;;0.70;0.50;;;;;;;14.25;49.58;100975.52;110616;1263;22142;-54
2024/04/19 03:33:20;;;;;;;0.60;0.60;;;;;;;14.24;49.58;100981.13;109878;1254;1002086;-54
2024/04/19 03:35:47;;;;;;;0.60;0.60;;;;;;;14.23;49.67;100979.42;110614;1254;22116;-54
2024/04/19 03:38:15;;;;;;;1.30;0.60;;;;;;;14.22;49.69;100980.48;110610;1254;23173;-54
2024/04/19 03:40:59;;;;;;;4.10;0.70;;;;;;;14.21;49.64;100981.58;110675;1254;23108;-54
2024/04/19 03:43:32;;;;;;;0.50;0.50;;;;;;;14.20;49.71;100987.55;110625;1254;22269;-56
2024/04/19 03:46:00;;;;;;;0.50;0.50;;;;;;;14.20;49.79;100993.65;110637;1254;22099;-54
2024/04/19 03:48:27;;;;;;;0.50;0.50;;;;;;;14.19;49.69;100995.80;110676;1264;23032;-54
2024/04/19 03:50:53;;;;;;;0.80;0.60;;;;;;;14.17;49.74;100999.70;110580;1253;22129;-54
2024/04/19 03:53:20;;;;;;;0.50;0.50;;;;;;;14.16;49.67;101000.60;110613;1260;22217;-54
2024/04/19 03:55:47;;;;;;;1.10;1.00;;;;;;;14.15;49.76;101002.71;110446;1266;22212;-54
2024/04/19 03:58:14;;;;;;;0.70;0.60;;;;;;;14.15;49.73;101001.31;110595;1262;22346;-55
2024/04/19 04:00:40;;;;;;;0.70;0.70;;;;;;;14.16;49.80;100999.55;110694;1254;22372;-54
2024/04/19 04:03:08;;;;;;;0.60;0.60;;;;;;;14.16;49.75;101003.21;110634;1263;22378;-54
2024/04/19 04:05:38;;;;;;;0.60;0.60;;;;;;;14.17;49.74;101008.95;110580;1250;22267;-55
2024/04/19 04:08:06;;;;;;;0.60;0.60;;;;;;;14.18;49.82;101007.68;110621;1254;22139;-54
2024/04/19 04:10:33;;;;;;;0.70;0.60;;;;;;;14.20;49.92;101009.89;110666;1260;22408;-54
2024/04/19 04:13:00;;;;;;;0.80;0.50;;;;;;;14.21;49.87;101013.69;110645;1254;22143;-54
2024/04/19 04:15:27;;;;;;;0.60;0.60;;;;;;;14.23;49.86;101016.41;110666;1250;22380;-54
2024/04/19 04:17:54;;;;;;;0.60;0.60;;;;;;;14.24;49.76;101020.40;110683;1250;23225;-54
2024/04/19 04:20:21;;;;;;;0.60;0.60;;;;;;;14.25;49.71;101027.00;110477;1257;22436;-54
2024/04/19 04:22:48;;;;;;;0.60;0.60;;;;;;;14.25;49.75;101032.04;110573;1257;22415;-54
2024/04/19 04:25:15;;;;;;;0.60;0.60;;;;;;;14.26;49.77;101032.73;110693;1253;22487;-54
2024/04/19 04:27:42;;;;;;;1.10;0.60;;;;;;;14.25;49.71;101036.41;110417;1260;22353;-54
2024/04/19 04:30:09;;;;;;;0.70;0.70;;;;;;;14.25;49.71;101041.30;110623;1253;22222;-55
2024/04/19 04:32:36;;;;;;;1.20;0.70;;;;;;;14.26;49.73;101043.19;110608;1250;22272;-54
2024/04/19 04:35:03;;;;;;;0.50;0.50;;;;;;;14.29;49.65;101044.88;110639;1254;22275;-54
2024/04/19 04:37:34;;;;;;;0.60;0.60;;;;;;;14.31;49.48;101049.33;110598;1259;22842;-54
2024/04/19 04:40:01;;;;;;;0.80;0.70;;;;;;;14.32;49.55;101051.41;110640;1254;23126;-54
2024/04/19 04:42:27;;;;;;;0.70;0.70;;;;;;;14.33;49.49;101054.48;110662;1250;23069;-54
2024/04/19 04:44:54;;;;;;;0.60;0.60;;;;;;;14.35;49.62;101053.55;110582;1253;22137;-54
2024/04/19 04:47:21;;;;;;;0.50;0.50;;;;;;;14.39;49.61;101058.33;109896;1250;1002948;-56
2024/04/19 04:49:48;;;;;;;0.60;0.60;;;;;;;14.43;49.55;101063.63;110675;1256;22070;-57
2024/04/19 04:52:15;;;;;;;0.90;0.70;;;;;;;14.46;49.53;101062.64;110282;1260;22180;-56
2024/04/19 04:54:42;;;;;;;1.70;0.50;;;;;;;14.49;49.38;101065.86;110646;1254;22133;-57
2024/04/19 04:57:08;;;;;;;0.90;0.50;;;;;;;14.51;49.65;101070.48;110419;1259;22263;-54
2024/04/19 04:59:35;;;;;;;0.40;0.40;;;;;;;14.56;49.59;101071.73;110642;1263;22135;-54
2024/04/19 05:02:03;;;;;;;0.70;0.70;;;;;;;14.60;49.52;101074.72;109905;1254;1002238;-54
2024/04/19 05:04:30;;;;;;;0.70;0.50;;;;;;;14.64;49.52;101079.51;110612;1266;22374;-54
2024/04/19 05:06:57;;;;;;;0.70;0.70;;;;;;;14.68;49.67;101089.31;110412;1263;22343;-54
2024/04/19 05:09:24;;;;;;;0.80;0.60;;;;;;;14.75;49.47;101094.15;110604;1274;22405;-57
2024/04/19 05:11:51;;;;;;;1.70;0.50;;;;;;;14.81;49.46;101093.42;110599;1271;22582;-55
2024/04/19 05:14:18;;;;;;;0.50;0.50;;;;;;;14.87;49.23;101098.12;110606;1267;23036;-54
2024/04/19 05:16:45;;;;;;;0.80;0.80;;;;;;;14.92;48.98;101096.75;110615;1274;22984;-54
2024/04/19 05:19:11;;;;;;;0.70;0.70;;;;;;;14.96;48.82;101108.98;110612;1267;23291;-54
2024/04/19 05:21:38;;;;;;;0.80;0.80;;;;;;;15.00;48.60;101110.77;109900;1260;1002457;-54
2024/04/19 05:24:06;;;;;;;0.90;0.90;;;;;;;15.02;48.51;101110.88;110620;1264;22189;-54
2024/04/19 05:26:33;;;;;;;1.00;1.00;;;;;;;15.01;48.56;101117.00;110452;1266;22219;-54
2024/04/19 05:29:00;;;;;;;2.20;1.10;;;;;;;15.03;48.61;101114.66;110653;1254;22113;-54
2024/04/19 05:31:26;;;;;;;0.80;0.80;;;;;;;15.06;48.58;101115.42;110629;1260;22389;-54
2024/04/19 05:33:53;;;;;;;1.20;1.10;;;;;;;15.11;48.52;101117.38;110690;1250;23292;-54
2024/04/19 05:36:20;;;;;;;1.30;1.20;;;;;;;15.15;48.41;101122.98;110234;1272;22351;-55
2024/04/19 05:38:47;;;;;;;1.60;1.30;;;;;;;15.25;48.35;101129.79;110619;1274;22122;-54
2024/04/19 05:41:14;;;;;;;1.90;1.50;;;;;;;15.49;48.38;101134.41;110595;1266;22212;-54
2024/04/19 05:43:41;;;;;;;1.10;1.00;;;;;;;15.83;47.71;101138.05;110433;1274;23046;-54
2024/04/19 05:46:08;;;;;;;1.30;1.20;;;;;;;16.24;47.27;101142.38;110640;1254;22392;-55
2024/04/19 05:48:34;;;;;;;1.90;1.70;;;;;;;16.69;46.33;101139.05;110692;1254;22420;-55
2024/04/19 05:51:02;;;;;;;1.50;1.40;;;;;;;17.15;45.41;101139.38;109859;1274;1006812;-55
2024/04/19 05:53:29;;;;;;;1.50;1.40;;;;;;;17.72;44.37;101141.08;110688;1256;23290;-55
2024/04/19 05:55:55;;;;;;;1.60;1.50;;;;;;;18.28;43.30;101141.84;110633;1254;22371;-55
2024/04/19 05:58:24;;;;;;;2.20;1.70;;;;;;;18.83;42.31;101141.23;110624;1266;23091;-55
2024/04/19 06:00:50;;;;;;;2.60;2.00;;;;;;;19.39;41.12;101145.45;109855;1274;1002397;-54
2024/04/19 06:03:18;;;;;;;1.90;1.80;;;;;;;19.89;39.97;101149.81;110669;1266;22336;-55
2024/04/19 06:05:45;;;;;;;2.00;1.80;;;;;;;20.40;38.81;101148.60;110600;1274;22284;-55
2024/04/19 06:08:12;;;;;;;1.80;1.70;;;;;;;20.81;37.89;101150.61;110643;1260;22352;-55
2024/04/19 06:10:40;;;;;;;1.90;1.70;;;;;;;21.07;37.19;101154.77;110605;1270;22349;-55
2024/04/19 06:13:06;;;;;;;1.80;1.70;;;;;;;21.28;36.91;101155.84;110578;1270;22888;-55
2024/04/19 06:15:33;;;;;;;1.80;1.70;;;;;;;21.53;36.61;101162.20;110602;1274;22324;-55
2024/04/19 06:18:00;;;;;;;1.80;1.70;;;;;;;21.86;36.01;101168.67;110615;1266;22117;-55
2024/04/19 06:20:27;;;;;;;1.70;1.60;;;;;;;22.11;35.44;101173.11;110571;1273;22402;-56
2024/04/19 06:22:54;;;;;;;1.80;1.60;;;;;;;22.37;35.27;101176.18;110593;1266;23784;-55
2024/04/19 06:25:21;;;;;;;2.60;1.80;;;;;;;22.63;34.52;101178.95;110654;1266;23118;-55
2024/04/19 06:27:48;;;;;;;1.90;1.70;;;;;;;22.74;33.89;101179.81;110582;1274;22432;-56
2024/04/19 06:30:15;;;;;;;2.00;1.80;;;;;;;22.78;33.65;101184.38;110462;1274;23091;-56
2024/04/19 06:32:42;;;;;;;2.90;1.60;;;;;;;22.86;33.56;101186.09;110471;1269;22919;-56
2024/04/19 06:35:09;;;;;;;2.40;1.80;;;;;;;23.04;33.44;101182.28;110569;1274;22507;-55
2024/04/19 06:37:36;;;;;;;2.30;1.50;;;;;;;23.24;33.03;101189.33;110620;1274;22976;-55
2024/04/19 06:40:03;;;;;;;2.30;2.00;;;;;;;23.38;32.41;101191.25;110609;1274;22107;-56
2024/04/19 06:42:34;;;;;;;1.70;1.60;;;;;;;23.50;32.30;101191.14;110213;1274;22305;-56
2024/04/19 06:45:01;;;;;;;2.50;2.10;;;;;;;23.59;31.90;101185.73;110493;1269;22250;-55
2024/04/19 06:47:28;;;;;;;3.00;2.10;;;;;;;23.67;31.77;101191.77;110437;1269;23190;-55
2024/04/19 06:49:55;;;;;;;3.10;2.20;;;;;;;23.74;31.55;101190.33;110409;1271;22086;-55
2024/04/19 06:52:22;;;;;;;2.30;1.80;;;;;;;23.84;31.61;101194.63;110177;1273;23410;-56
2024/04/19 06:54:50;;;;;;;2.00;1.80;;;;;;;23.94;31.16;101192.30;110630;1274;22850;-55
2024/04/19 06:57:18;;;;;;;3.20;1.90;;;;;;;24.02;30.88;101193.31;110448;1270;22356;-55
2024/04/19 06:59:45;;;;;;;2.00;1.60;;;;;;;24.13;31.14;101188.17;110601;1267;22449;-55
2024/04/19 07:02:13;;;;;;;2.10;1.90;;;;;;;24.27;30.95;101192.46;110565;1274;23079;-56
2024/04/19 07:04:40;;;;;;;1.60;1.50;;;;;;;24.45;30.41;101201.63;110599;1267;22450;-55
2024/04/19 07:07:07;;;;;;;1.70;1.60;;;;;;;24.62;30.18;101204.39;110594;1274;22268;-56
2024/04/19 07:09:34;;;;;;;1.90;1.80;;;;;;;24.77;30.11;101205.98;110634;1266;22760;-55
2024/04/19 07:12:01;;;;;;;2.20;2.00;;;;;;;24.92;30.01;101207.20;110463;1269;22255;-56
2024/04/19 07:14:28;;;;;;;2.20;2.00;;;;;;;25.06;29.85;101206.82;110168;1274;22147;-56
2024/04/19 07:16:55;;;;;;;2.60;2.20;;;;;;;25.19;29.70;101212.25;110588;1270;22284;-55
2024/04/19 07:19:22;;;;;;;2.10;2.00;;;;;;;25.28;29.35;101213.69;110597;1266;22376;-55
2024/04/19 07:21:49;;;;;;;1.70;1.60;;;;;;;25.34;29.18;101216.92;110469;1267;22336;-56
2024/04/19 07:24:16;;;;;;;1.90;1.70;;;;;;;25.39;29.45;101215.86;110602;1274;22302;-55
2024/04/19 07:26:43;;;;;;;2.30;1.90;;;;;;;25.41;29.58;101222.32;110616;1266;22151;-55
2024/04/19 07:29:10;;;;;;;2.10;1.80;;;;;;;25.33;29.05;101222.56;110611;1266;22122;-55
2024/04/19 07:31:36;;;;;;;2.60;2.30;;;;;;;25.09;28.85;101227.39;110582;1267;22935;-55
2024/04/19 07:34:03;;;;;;;2.40;1.90;;;;;;;24.76;29.14;101227.90;110654;1266;22416;-56
2024/04/19 07:36:31;;;;;;;2.00;1.90;;;;;;;24.46;29.46;101229.42;110636;1266;22096;-56
2024/04/19 07:38:58;;;;;;;2.40;2.00;;;;;;;24.17;30.38;101230.06;110649;1266;22205;-55
2024/04/19 07:41:26;;;;;;;2.30;2.00;;;;;;;23.91;30.54;101226.77;109840;1266;1002909;-55
2024/04/19 07:43:53;;;;;;;2.80;2.00;;;;;;;23.67;30.55;101230.38;110592;1267;22435;-55
2024/04/19 07:46:27;;;;;;;2.60;1.80;;;;;;;23.41;31.02;101225.95;110608;1266;22839;-55
2024/04/19 07:48:54;;;;;;;2.10;1.90;;;;;;;23.20;31.31;101226.14;110588;1267;22346;-55
2024/04/19 07:51:21;;;;;;;1.80;1.70;;;;;;;23.00;31.53;101231.20;110457;1267;22461;-55
2024/04/19 07:53:49;;;;;;;2.20;2.00;;;;;;;22.76;31.15;101234.52;110577;1274;22139;-54
2024/04/19 07:56:15;;;;;;;2.20;2.00;;;;;;;22.51;31.19;101237.49;110614;1270;22429;-55
2024/04/19 07:58:44;;;;;;;2.90;2.00;;;;;;;22.29;32.05;101240.17;110603;1274;22278;-55
2024/04/19 08:01:11;;;;;;;2.30;2.00;;;;;;;22.14;32.46;101240.02;110656;1266;23065;-55
2024/04/19 08:03:39;;;;;;;2.00;1.80;;;;;;;22.04;32.60;101239.27;110612;1267;22141;-56
2024/04/19 08:06:06;;;;;;;2.20;1.80;;;;;;;21.97;32.79;101240.26;109822;1270;1002142;-55
2024/04/19 08:08:33;;;;;;;2.10;1.70;;;;;;;21.91;32.93;101242.02;110143;1274;22444;-55
2024/04/19 08:11:01;;;;;;;2.60;1.90;;;;;;;21.88;33.03;101242.20;110414;1269;22365;-55
2024/04/19 08:13:29;;;;;;;2.10;1.80;;;;;;;21.84;32.89;101244.52;110621;1266;22117;-55
2024/04/19 08:15:56;;;;;;;2.00;1.80;;;;;;;21.77;32.71;101248.84;110628;1270;23053;-55
2024/04/19 08:18:23;;;;;;;2.30;2.10;;;;;;;21.70;33.01;101249.46;110607;1274;23034;-54
2024/04/19 08:20:49;;;;;;;2.30;1.80;;;;;;;21.63;32.54;101246.31;110632;1266;22248;-55
2024/04/19 08:23:16;;;;;;;2.80;1.80;;;;;;;21.56;32.62;101246.40;110603;1266;22878;-55
2024/04/19 08:25:44;;;;;;;1.80;1.70;;;;;;;21.53;32.60;101241.49;110587;1266;22240;-54
2024/04/19 08:28:11;;;;;;;1.60;1.50;;;;;;;21.54;33.06;101249.92;110655;1266;22211;-55
2024/04/19 08:30:38;;;;;;;1.70;1.60;;;;;;;21.57;33.32;101252.52;110614;1266;22491;-55
2024/04/19 08:33:05;;;;;;;1.90;1.80;;;;;;;21.63;33.33;101256.07;110607;1274;22902;-55
2024/04/19 08:35:32;;;;;;;2.40;2.20;;;;;;;21.69;33.63;101259.73;110583;1267;22413;-55
2024/04/19 08:38:00;;;;;;;1.90;1.80;;;;;;;21.76;33.36;101259.52;110627;1266;22585;-55
2024/04/19 08:40:29;;;;;;;1.70;1.60;;;;;;;21.81;33.00;101256.77;110619;1274;22366;-55
2024/04/19 08:42:56;;;;;;;2.50;1.70;;;;;;;21.84;33.00;101256.23;110620;1274;22286;-55
2024/04/19 08:45:23;;;;;;;4.40;2.10;;;;;;;21.84;33.16;101256.20;110616;1274;22887;-55
2024/04/19 08:47:50;;;;;;;1.70;1.60;;;;;;;21.82;33.52;101256.34;110569;1268;22391;-55
2024/04/19 08:50:17;;;;;;;2.00;1.90;;;;;;;21.78;33.54;101247.74;110456;1269;22443;-55
2024/04/19 08:52:46;;;;;;;2.00;1.80;;;;;;;21.74;34.12;101249.58;110230;1273;22331;-55
2024/04/19 08:55:36;;;;;;;2.10;1.60;;;;;;;21.71;34.62;101250.27;110391;1269;22450;-55
2024/04/19 08:58:02;;;;;;;2.80;1.90;;;;;;;21.67;35.27;101252.43;110173;1270;22475;-55
2024/04/19 09:00:30;;;;;;;1.80;1.70;;;;;;;21.62;35.46;101246.20;110181;1277;22644;-54
2024/04/19 09:02:57;;;;;;;2.00;1.90;;;;;;;21.55;35.36;101248.26;110178;1272;22381;-55
2024/04/19 09:05:24;;;;;;;1.80;1.70;;;;;;;21.44;35.91;101248.03;110390;1270;22140;-55
2024/04/19 09:07:51;;;;;;;2.00;1.80;;;;;;;21.32;36.35;101243.64;110426;1269;23277;-55
2024/04/19 09:10:18;;;;;;;3.00;2.20;;;;;;;21.23;36.44;101245.77;110413;1277;22405;-54
2024/04/19 09:12:46;;;;;;;3.00;2.00;;;;;;;21.13;36.18;101246.85;110418;1275;22475;-55
2024/04/19 09:15:14;;;;;;;2.40;2.20;;;;;;;21.07;36.63;101248.80;110383;1269;22147;-55
2024/04/19 09:17:41;;;;;;;2.00;1.80;;;;;;;21.02;37.04;101247.42;110427;1269;23141;-55
2024/04/19 09:20:08;;;;;;;1.90;1.70;;;;;;;21.01;36.85;101246.27;110424;1269;23302;-55
2024/04/19 09:22:36;;;;;;;3.70;2.00;;;;;;;21.04;37.04;101246.67;110208;1272;22817;-55
2024/04/19 09:25:03;;;;;;;3.00;1.80;;;;;;;21.05;37.68;101242.71;110419;1269;22725;-55
2024/04/19 09:27:31;;;;;;;2.50;2.30;;;;;;;21.04;37.86;101247.52;110315;1266;22867;-55
2024/04/19 09:29:59;;;;;;;2.00;1.90;;;;;;;21.00;37.85;101248.09;110636;1267;22350;-55
2024/04/19 09:32:29;;;;;;;2.10;2.00;;;;;;;20.92;37.91;101249.58;110570;1266;22460;-55
2024/04/19 09:34:56;;;;;;;2.50;2.30;;;;;;;20.84;38.16;101250.23;110624;1266;22253;-55
2024/04/19 09:37:24;;;;;;;2.60;2.30;;;;;;;20.74;38.17;101260.52;110669;1266;22072;-55
2024/04/19 09:39:51;;;;;;;2.80;2.10;;;;;;;20.62;38.29;101265.75;110590;1271;22500;-54
2024/04/19 09:42:18;;;;;;;2.40;2.00;;;;;;;20.52;38.76;101273.05;110624;1271;22879;-55
2024/04/19 09:44:47;;;;;;;2.30;2.10;;;;;;;20.43;39.09;101274.06;110595;1274;22401;-55
2024/04/19 09:47:14;;;;;;;2.60;2.00;;;;;;;20.37;39.25;101279.16;110438;1272;22160;-55
2024/04/19 09:49:44;;;;;;;3.30;2.20;;;;;;;20.31;39.49;101281.76;110554;1267;22340;-55
2024/04/19 09:52:22;;;;;;;2.80;2.30;;;;;;;20.24;39.74;101279.51;110624;1272;23154;-54
2024/04/19 09:55:02;;;;;;;3.10;2.60;;;;;;;20.16;39.63;101280.25;110632;1266;22433;-54
2024/04/19 09:57:29;;;;;;;2.40;2.20;;;;;;;20.05;39.76;101285.27;110572;1273;22128;-55
2024/04/19 09:59:57;;;;;;;4.80;2.20;;;;;;;19.95;39.93;101288.23;110556;1270;22202;-55
2024/04/19 10:02:24;;;;;;;2.90;2.60;;;;;;;19.86;40.07;101288.38;110641;1266;23247;-55
2024/04/19 10:05:02;;;;;;;3.60;2.40;;;;;;;19.74;40.53;101286.35;110590;1267;22190;-55
2024/04/19 10:07:30;;;;;;;3.00;2.50;;;;;;;19.64;40.81;101288.26;110549;1267;23192;-54
2024/04/19 10:09:57;;;;;;;2.90;2.60;;;;;;;19.58;40.99;101286.63;109848;1266;1002326;-55
2024/04/19 10:12:24;;;;;;;3.10;2.40;;;;;;;19.55;41.33;101287.16;110624;1268;22915;-54
2024/04/19 10:14:51;;;;;;;3.70;2.50;;;;;;;19.53;41.40;101283.73;110621;1274;23007;-55
2024/04/19 10:17:18;;;;;;;3.50;2.40;;;;;;;19.53;41.30;101286.55;110444;1270;22948;-54
2024/04/19 10:19:46;;;;;;;7.10;2.50;;;;;;;19.53;41.36;101283.55;110596;1269;22392;-55
2024/04/19 10:22:22;;;;;;;2.30;2.10;;;;;;;19.53;41.36;101292.02;110562;1269;22215;-55
2024/04/19 10:24:57;;;;;;;2.60;2.20;;;;;;;19.52;41.53;101293.09;110596;1274;22343;-55
2024/04/19 10:27:28;;;;;;;2.20;2.00;;;;;;;19.54;41.92;101293.92;110403;1275;22163;-55
2024/04/19 10:29:57;;;;;;;2.70;2.40;;;;;;;19.55;41.68;101288.55;110355;1273;22148;-55
2024/04/19 10:32:24;;;;;;;4.00;2.60;;;;;;;19.56;41.49;101290.12;110606;1267;22959;-55
2024/04/19 10:34:51;;;;;;;3.30;2.70;;;;;;;19.55;41.22;101290.14;110608;1274;23026;-54
2024/04/19 10:37:19;;;;;;;4.10;2.50;;;;;;;19.54;41.52;101292.65;110598;1266;22354;-55
2024/04/19 10:39:47;;;;;;;4.60;2.80;;;;;;;19.53;41.56;101290.61;110617;1261;22276;-55
2024/04/19 10:42:17;;;;;;;3.60;2.70;;;;;;;19.52;41.57;101288.88;110615;1274;22111;-55
2024/04/19 10:44:46;;;;;;;3.10;2.70;;;;;;;19.52;41.54;101287.13;110629;1266;22189;-55
2024/04/19 10:47:13;;;;;;;2.70;2.50;;;;;;;19.52;41.65;101285.73;110581;1270;22312;-55
2024/04/19 10:49:40;;;;;;;2.80;2.60;;;;;;;19.51;41.91;101282.05;110414;1273;242806;-54
2024/04/19 10:52:07;;;;;;;5.10;2.90;;;;;;;19.53;42.07;101282.48;110587;1272;22367;-55
2024/04/19 10:54:35;;;;;;;2.90;2.70;;;;;;;19.56;42.06;101279.53;110595;1274;22385;-55
2024/04/19 10:57:02;;;;;;;4.10;2.60;;;;;;;19.58;42.04;101277.50;110611;1272;22309;-55
2024/04/19 10:59:30;;;;;;;3.20;2.30;;;;;;;19.59;41.93;101278.48;110561;1267;23064;-55
2024/04/19 11:01:59;;;;;;;3.00;2.30;;;;;;;19.59;41.97;101273.92;110596;1274;22520;-55
2024/04/19 11:04:27;;;;;;;4.10;2.50;;;;;;;19.58;42.25;101270.13;110603;1274;22978;-55
2024/04/19 11:06:54;;;;;;;2.70;2.20;;;;;;;19.56;42.16;101267.56;110612;1274;22157;-55
2024/04/19 11:09:21;;;;;;;3.10;2.30;;;;;;;19.56;41.76;101268.26;110616;1274;22380;-54
2024/04/19 11:11:48;;;;;;;2.50;2.30;;;;;;;19.56;41.74;101271.45;110625;1266;22917;-55
2024/04/19 11:14:18;;;;;;;3.10;2.40;;;;;;;19.58;41.89;101271.16;110605;1271;22839;-55
2024/04/19 11:16:46;;;;;;;3.20;2.30;;;;;;;19.65;41.77;101270.29;110555;1274;22420;-55
2024/04/19 11:19:16;;;;;;;2.20;2.00;;;;;;;19.74;41.71;101269.45;110618;1266;22333;-55
2024/04/19 11:21:42;;;;;;;3.20;2.40;;;;;;;19.86;41.20;101272.70;110557;1275;22173;-54
2024/04/19 11:24:09;;;;;;;3.10;2.10;;;;;;;19.98;41.13;101283.50;110552;1274;22111;-54